Time;durP1;ratioP1;P1;durP2;ratioP2;P2;SDS_P1;SDS_P2;PMS_P1;PMS_P2;Temp;Humidity;BMP_temperature;BMP_pressure;BME280_temperature;BME280_humidity;BME280_pressure;Samples;Min_cycle;Max_cycle;Signal;HPM_P1;HPM_P2
2022/04/03 00:00:17;;;;;;;6.68;3.80;;;;;;;17.01;41.57;102502.19;5047847;28;20132;-60
2022/04/03 00:02:44;;;;;;;5.97;3.80;;;;;;;16.99;41.57;102504.13;5051084;28;20053;-60
2022/04/03 00:05:10;;;;;;;6.38;3.97;;;;;;;16.98;40.75;102510.44;5027828;28;20128;-60
2022/04/03 00:07:37;;;;;;;6.15;3.55;;;;;;;16.98;41.43;102513.13;5031029;28;20179;-61
2022/04/03 00:10:04;;;;;;;6.18;3.28;;;;;;;16.97;41.28;102505.22;5044997;28;20128;-61
2022/04/03 00:12:31;;;;;;;5.45;3.22;;;;;;;16.95;41.26;102507.97;5051695;28;20103;-61
2022/04/03 00:14:57;;;;;;;6.28;3.75;;;;;;;16.93;41.63;102503.69;5029225;28;20079;-61
2022/04/03 00:17:24;;;;;;;5.75;3.65;;;;;;;16.91;41.84;102506.47;5039558;28;20129;-60
2022/04/03 00:19:50;;;;;;;6.65;3.28;;;;;;;16.90;41.36;102496.72;5047753;28;20132;-60
2022/04/03 00:22:17;;;;;;;7.78;3.80;;;;;;;16.90;41.08;102501.22;5049101;28;20491;-60
2022/04/03 00:24:44;;;;;;;5.55;2.95;;;;;;;16.88;41.45;102501.31;5027288;28;20060;-61
2022/04/03 00:27:10;;;;;;;6.25;3.53;;;;;;;16.86;41.41;102511.28;5031091;28;20099;-61
2022/04/03 00:29:37;;;;;;;5.03;2.92;;;;;;;16.84;41.82;102497.13;5029162;28;20044;-61
2022/04/03 00:32:04;;;;;;;7.15;3.60;;;;;;;16.85;41.73;102506.06;5032202;28;20207;-61
2022/04/03 00:34:31;;;;;;;5.60;3.08;;;;;;;16.83;41.97;102502.59;5028751;28;20052;-60
2022/04/03 00:36:57;;;;;;;4.65;2.72;;;;;;;16.80;41.72;102503.66;5032749;28;20139;-60
2022/04/03 00:39:24;;;;;;;6.43;3.20;;;;;;;16.76;41.49;102508.41;5052165;28;20160;-60
2022/04/03 00:41:52;;;;;;;6.55;3.17;;;;;;;16.76;41.22;102503.03;5049157;28;20352;-60
2022/04/03 00:44:18;;;;;;;4.55;2.70;;;;;;;16.75;41.81;102500.44;5047288;28;20152;-60
2022/04/03 00:46:47;;;;;;;4.80;2.78;;;;;;;16.72;41.30;102504.19;5031984;28;20127;-60
2022/04/03 00:49:13;;;;;;;4.22;2.88;;;;;;;16.71;41.97;102496.22;5025106;28;20055;-60
2022/04/03 00:51:40;;;;;;;5.47;2.80;;;;;;;16.69;41.73;102493.66;5028075;28;20136;-60
2022/04/03 00:54:10;;;;;;;5.15;2.80;;;;;;;16.68;42.03;102500.00;5045224;28;20061;-60
2022/04/03 00:56:37;;;;;;;7.00;3.00;;;;;;;16.67;42.10;102490.22;5031512;28;20049;-60
2022/04/03 00:59:04;;;;;;;4.55;2.53;;;;;;;16.66;42.19;102491.19;5029978;28;20076;-60
2022/04/03 01:01:30;;;;;;;3.97;2.20;;;;;;;16.65;42.24;102485.97;5044953;28;20079;-60
2022/04/03 01:03:59;;;;;;;4.80;2.65;;;;;;;16.63;41.75;102485.19;5031607;28;20067;-60
2022/04/03 01:06:25;;;;;;;5.03;2.10;;;;;;;16.61;41.85;102490.66;5027809;28;20209;-59
2022/04/03 01:08:52;;;;;;;3.65;2.60;;;;;;;16.60;41.62;102483.56;5026923;28;20171;-60
2022/04/03 01:11:22;;;;;;;5.53;2.88;;;;;;;16.59;41.69;102486.34;5032566;28;20098;-59
2022/04/03 01:13:50;;;;;;;3.60;2.20;;;;;;;16.58;41.82;102482.81;5029933;28;20092;-59
2022/04/03 01:16:18;;;;;;;2.92;2.28;;;;;;;16.57;42.04;102488.28;5043555;28;20126;-61
2022/04/03 01:18:46;;;;;;;3.22;2.35;;;;;;;16.55;41.88;102491.06;5027950;28;20080;-60
2022/04/03 01:21:13;;;;;;;4.43;1.90;;;;;;;16.54;42.10;102487.53;5028786;28;20049;-59
2022/04/03 01:23:40;;;;;;;3.17;2.08;;;;;;;16.54;41.96;102500.06;5043602;28;20114;-60
2022/04/03 01:26:06;;;;;;;3.83;2.53;;;;;;;16.52;41.86;102489.47;5023475;28;20104;-60
2022/04/03 01:28:33;;;;;;;4.80;2.65;;;;;;;16.51;41.83;102493.09;5030741;28;20128;-60
2022/04/03 01:30:59;;;;;;;4.88;2.30;;;;;;;16.49;42.19;102489.66;5047599;28;20091;-60
2022/04/03 01:33:26;;;;;;;3.35;2.20;;;;;;;16.47;41.70;102496.94;5021111;28;20048;-60
2022/04/03 01:35:53;;;;;;;3.50;2.20;;;;;;;16.45;42.23;102489.97;5026808;28;20060;-60
2022/04/03 01:38:20;;;;;;;5.65;2.70;;;;;;;16.45;41.66;102498.00;5038961;28;20107;-60
2022/04/03 01:40:47;;;;;;;3.65;1.98;;;;;;;16.42;41.67;102482.16;5048298;28;20053;-61
2022/04/03 01:43:13;;;;;;;5.13;2.25;;;;;;;16.42;41.94;102482.16;5042820;28;21987;-59
2022/04/03 01:45:40;;;;;;;3.00;2.08;;;;;;;16.40;42.17;102476.03;5015906;28;20068;-60
2022/04/03 01:48:08;;;;;;;3.80;1.88;;;;;;;16.39;41.80;102477.84;5037494;28;22224;-60
2022/04/03 01:50:35;;;;;;;2.47;1.85;;;;;;;16.38;42.20;102475.28;5007591;28;20126;-58
2022/04/03 01:53:02;;;;;;;3.42;1.83;;;;;;;16.36;42.27;102478.09;5029307;28;20128;-60
2022/04/03 01:55:28;;;;;;;2.75;1.90;;;;;;;16.37;42.18;102477.09;5043544;28;20088;-59
2022/04/03 01:57:55;;;;;;;5.60;2.05;;;;;;;16.37;41.89;102481.59;5047362;28;20132;-59
2022/04/03 02:00:23;;;;;;;3.85;1.90;;;;;;;16.35;41.52;102475.47;5016959;28;20292;-61
2022/04/03 02:02:52;;;;;;;2.92;1.67;;;;;;;16.35;41.64;102475.47;5022898;28;20448;-60
2022/04/03 02:05:21;;;;;;;3.95;1.90;;;;;;;16.35;41.86;102483.50;5024542;28;20046;-59
2022/04/03 02:07:48;;;;;;;2.78;1.83;;;;;;;16.35;41.68;102473.66;5009662;28;20425;-60
2022/04/03 02:10:14;;;;;;;2.55;1.50;;;;;;;16.34;41.75;102474.63;5025176;28;20436;-60
2022/04/03 02:12:43;;;;;;;2.47;1.42;;;;;;;16.34;42.44;102471.97;5017918;28;20037;-60
2022/04/03 02:15:11;;;;;;;4.63;1.90;;;;;;;16.35;41.84;102480.84;5030555;28;20356;-60
2022/04/03 02:17:41;;;;;;;3.08;1.90;;;;;;;16.33;41.48;102477.44;5006462;28;20129;-61
2022/04/03 02:20:09;;;;;;;2.53;1.58;;;;;;;16.34;42.05;102481.81;5012691;28;20150;-60
2022/04/03 02:22:36;;;;;;;2.67;1.92;;;;;;;16.35;42.23;102480.84;5013822;28;20049;-59
2022/04/03 02:25:04;;;;;;;3.30;1.70;;;;;;;16.34;42.14;102487.16;5034543;28;20104;-60
2022/04/03 02:27:31;;;;;;;3.70;2.05;;;;;;;16.34;41.49;102485.34;5025266;28;20081;-60
2022/04/03 02:29:57;;;;;;;2.80;1.67;;;;;;;16.34;42.19;102489.84;5028823;28;20053;-59
2022/04/03 02:32:25;;;;;;;2.47;1.55;;;;;;;16.33;41.74;102482.78;5033306;28;20096;-60
2022/04/03 02:34:52;;;;;;;2.90;1.58;;;;;;;16.32;41.74;102481.88;5027649;28;20048;-60
2022/04/03 02:37:19;;;;;;;2.50;1.50;;;;;;;16.32;42.50;102481.03;5010083;28;20053;-59
2022/04/03 02:39:45;;;;;;;3.92;1.60;;;;;;;16.32;41.58;102473.84;5029862;28;20510;-60
2022/04/03 02:42:12;;;;;;;3.75;1.88;;;;;;;16.30;42.01;102465.09;5026178;28;20133;-60
2022/04/03 02:44:39;;;;;;;2.03;1.58;;;;;;;16.31;41.36;102484.69;5015396;28;20045;-60
2022/04/03 02:47:06;;;;;;;2.28;1.70;;;;;;;16.29;41.89;102479.44;5017903;28;20061;-60
2022/04/03 02:49:32;;;;;;;2.17;1.33;;;;;;;16.28;41.88;102485.72;5032400;28;20136;-61
2022/04/03 02:51:59;;;;;;;2.67;1.88;;;;;;;16.26;41.44;102475.16;5029436;28;20108;-62
2022/04/03 02:54:25;;;;;;;1.48;1.38;;;;;;;16.27;42.42;102484.88;5026185;28;20056;-61
2022/04/03 02:56:52;;;;;;;2.53;1.67;;;;;;;16.24;41.60;102474.41;5035669;28;20060;-61
2022/04/03 02:59:18;;;;;;;4.20;1.35;;;;;;;16.25;41.77;102484.13;5014605;28;20083;-61
2022/04/03 03:01:46;;;;;;;1.88;1.65;;;;;;;16.25;42.02;102492.16;5026252;28;20069;-61
2022/04/03 03:04:14;;;;;;;2.83;1.50;;;;;;;16.22;41.90;102489.69;5015966;28;20057;-61
2022/04/03 03:06:41;;;;;;;2.30;1.48;;;;;;;16.21;41.54;102487.97;5012627;28;20330;-60
2022/04/03 03:09:08;;;;;;;2.45;1.60;;;;;;;16.20;41.67;102491.63;5014774;28;20125;-61
2022/04/03 03:11:34;;;;;;;4.75;1.48;;;;;;;16.20;42.52;102491.63;5016654;28;20089;-60
2022/04/03 03:14:01;;;;;;;2.38;1.55;;;;;;;16.19;42.34;102487.19;5012407;28;20080;-60
2022/04/03 03:16:28;;;;;;;3.00;1.35;;;;;;;16.20;41.85;102491.63;5016229;28;20132;-61
2022/04/03 03:18:54;;;;;;;2.42;1.38;;;;;;;16.18;42.37;102493.53;5029109;28;20080;-62
2022/04/03 03:21:21;;;;;;;2.20;1.27;;;;;;;16.18;42.53;102490.84;5014481;28;20037;-60
2022/04/03 03:23:47;;;;;;;2.88;1.45;;;;;;;16.16;42.56;102486.53;5033218;28;20145;-62
2022/04/03 03:26:14;;;;;;;2.92;1.90;;;;;;;16.18;41.81;102490.00;5033503;28;20048;-59
2022/04/03 03:28:41;;;;;;;2.03;1.52;;;;;;;16.18;42.35;102487.31;5030765;28;20132;-59
2022/04/03 03:31:07;;;;;;;2.03;1.38;;;;;;;16.17;42.24;102486.47;5032786;28;20569;-59
2022/04/03 03:33:34;;;;;;;1.85;1.20;;;;;;;16.17;41.88;102485.59;5031491;28;20076;-60
2022/04/03 03:36:01;;;;;;;2.30;1.33;;;;;;;16.17;42.16;102486.47;5013128;28;20103;-60
2022/04/03 03:38:27;;;;;;;2.15;1.58;;;;;;;16.17;41.76;102478.44;5027860;28;20132;-59
2022/04/03 03:40:54;;;;;;;2.65;1.30;;;;;;;16.18;41.69;102480.16;5030804;28;20085;-60
2022/04/03 03:43:21;;;;;;;2.08;1.30;;;;;;;16.17;42.57;102478.44;5031115;28;20123;-60
2022/04/03 03:45:47;;;;;;;1.90;1.30;;;;;;;16.16;42.20;102475.84;5028227;28;20096;-59
2022/04/03 03:48:14;;;;;;;2.85;1.38;;;;;;;16.15;42.09;102469.63;5031695;28;20065;-59
2022/04/03 03:50:41;;;;;;;2.10;1.58;;;;;;;16.15;42.33;102471.47;5012666;28;20083;-59
2022/04/03 03:53:08;;;;;;;2.22;1.60;;;;;;;16.15;42.46;102475.00;5031953;28;20129;-61
2022/04/03 03:55:34;;;;;;;2.13;1.15;;;;;;;16.14;42.77;102475.97;5028505;28;20041;-61
2022/04/03 03:58:01;;;;;;;4.07;1.40;;;;;;;16.13;42.43;102473.41;5023926;28;20045;-61
2022/04/03 04:00:27;;;;;;;3.03;1.10;;;;;;;16.14;41.84;102478.63;5030138;28;20656;-60
2022/04/03 04:02:54;;;;;;;3.08;1.40;;;;;;;16.12;41.58;102474.34;5030297;28;20167;-60
2022/04/03 04:05:20;;;;;;;2.85;1.30;;;;;;;16.13;41.90;102476.94;5034763;28;20049;-61
2022/04/03 04:07:47;;;;;;;2.22;1.50;;;;;;;16.12;42.54;102479.69;5030240;28;20065;-64
2022/04/03 04:10:16;;;;;;;1.60;1.20;;;;;;;16.10;41.82;102477.13;5032380;28;20100;-61
2022/04/03 04:12:44;;;;;;;3.45;1.52;;;;;;;16.10;42.87;102473.59;5036746;28;20141;-61
2022/04/03 04:15:12;;;;;;;2.63;1.20;;;;;;;16.07;42.57;102469.28;5030060;28;20137;-61
2022/04/03 04:17:44;;;;;;;1.50;1.00;;;;;;;16.06;42.82;102474.75;5011615;28;20466;-61
2022/04/03 04:20:13;;;;;;;3.38;1.40;;;;;;;16.06;41.66;102486.31;5018475;28;20052;-61
2022/04/03 04:22:40;;;;;;;3.85;1.30;;;;;;;16.04;42.10;102491.75;5016879;28;20044;-59
2022/04/03 04:25:08;;;;;;;3.05;1.33;;;;;;;16.02;42.28;102482.13;5030868;28;20144;-59
2022/04/03 04:27:35;;;;;;;1.50;1.00;;;;;;;16.02;42.81;102492.81;5019052;28;20060;-60
2022/04/03 04:30:02;;;;;;;2.45;1.40;;;;;;;15.98;41.99;102486.81;5016415;28;20124;-60
2022/04/03 04:32:28;;;;;;;2.50;1.42;;;;;;;16.00;42.61;102490.25;5024930;28;20072;-61
2022/04/03 04:34:55;;;;;;;2.13;1.20;;;;;;;15.98;41.97;102486.81;5033776;28;20081;-61
2022/04/03 04:37:22;;;;;;;2.55;1.50;;;;;;;15.97;42.29;102486.91;5024698;28;20312;-60
2022/04/03 04:39:48;;;;;;;3.33;1.40;;;;;;;15.95;42.03;102489.66;5035636;28;20045;-61
2022/04/03 04:42:15;;;;;;;1.40;1.00;;;;;;;15.94;42.00;102490.63;5031747;28;20131;-62
2022/04/03 04:44:42;;;;;;;2.42;1.30;;;;;;;15.93;42.19;102490.75;5032233;28;20428;-59
2022/04/03 04:47:09;;;;;;;4.18;1.60;;;;;;;15.93;42.04;102485.41;5022740;28;20081;-59
2022/04/03 04:49:36;;;;;;;2.40;1.23;;;;;;;15.91;42.02;102487.28;5027914;28;20466;-59
2022/04/03 04:52:03;;;;;;;2.35;1.20;;;;;;;15.89;42.44;102495.44;5016580;28;20829;-60
2022/04/03 04:54:30;;;;;;;1.98;1.25;;;;;;;15.89;42.78;102490.09;5029862;28;20562;-60
2022/04/03 04:56:58;;;;;;;3.67;1.55;;;;;;;15.89;42.66;102491.91;5021830;28;20124;-62
2022/04/03 04:59:30;;;;;;;1.17;1.00;;;;;;;15.86;42.64;102490.28;5033448;28;20128;-61
2022/04/03 05:01:59;;;;;;;1.85;1.30;;;;;;;15.87;42.64;102496.47;5011393;28;20073;-61
2022/04/03 05:04:26;;;;;;;2.55;1.55;;;;;;;15.86;42.49;102484.94;5018619;28;20057;-60
2022/04/03 05:06:54;;;;;;;1.95;1.60;;;;;;;15.86;42.98;102492.09;5031119;28;20131;-60
2022/04/03 05:09:21;;;;;;;3.30;1.40;;;;;;;15.88;42.22;102487.50;5048062;28;20136;-60
2022/04/03 05:11:48;;;;;;;1.63;0.93;;;;;;;15.94;42.08;102479.94;5034164;28;20073;-60
2022/04/03 05:14:15;;;;;;;2.92;1.10;;;;;;;16.01;41.70;102488.44;5045493;28;20077;-61
2022/04/03 05:16:42;;;;;;;2.72;1.40;;;;;;;16.09;42.24;102486.09;5049084;28;20080;-60
2022/04/03 05:19:13;;;;;;;1.45;1.30;;;;;;;16.17;42.43;102483.78;5040564;28;20036;-60
2022/04/03 05:21:43;;;;;;;3.08;1.30;;;;;;;16.24;42.71;102482.44;5044576;28;20158;-60
2022/04/03 05:24:09;;;;;;;4.80;2.03;;;;;;;16.33;42.20;102485.44;5045882;28;20053;-61
2022/04/03 05:26:36;;;;;;;3.00;1.42;;;;;;;16.41;42.12;102485.78;5045408;28;20052;-60
2022/04/03 05:29:08;;;;;;;2.30;1.45;;;;;;;16.50;42.26;102482.50;5044130;28;20104;-60
2022/04/03 05:31:35;;;;;;;2.72;1.30;;;;;;;16.58;42.43;102480.16;5044915;28;20083;-60
2022/04/03 05:34:02;;;;;;;2.40;1.60;;;;;;;16.67;42.54;102479.50;5031481;28;20037;-61
2022/04/03 05:36:29;;;;;;;1.73;1.30;;;;;;;16.74;42.15;102480.84;5031562;28;20116;-59
2022/04/03 05:38:55;;;;;;;2.38;1.40;;;;;;;16.82;42.29;102484.84;5030560;28;20085;-60
2022/04/03 05:41:22;;;;;;;3.17;1.63;;;;;;;16.90;42.38;102479.81;5038222;28;20051;-60
2022/04/03 05:43:53;;;;;;;2.15;1.20;;;;;;;16.97;42.13;102483.78;5021014;28;20053;-60
2022/04/03 05:46:19;;;;;;;1.92;1.20;;;;;;;17.03;42.32;102480.66;5044476;28;20136;-59
2022/04/03 05:48:46;;;;;;;2.70;1.75;;;;;;;17.10;42.21;102479.25;5043685;28;20055;-59
2022/04/03 05:51:13;;;;;;;2.80;1.70;;;;;;;17.15;41.63;102474.44;5049177;28;20048;-61
2022/04/03 05:53:40;;;;;;;2.78;1.40;;;;;;;17.21;41.97;102479.38;5024190;28;20076;-60
2022/04/03 05:56:06;;;;;;;1.85;1.42;;;;;;;17.26;42.11;102477.22;5049946;28;20499;-60
2022/04/03 05:58:34;;;;;;;2.35;1.27;;;;;;;17.32;41.52;102483.09;5051915;28;20040;-60
2022/04/03 06:01:00;;;;;;;2.05;1.25;;;;;;;17.35;41.45;102482.88;5050288;28;20091;-60
2022/04/03 06:03:27;;;;;;;1.08;0.98;;;;;;;17.37;42.15;102481.81;5049785;28;20511;-59
2022/04/03 06:05:53;;;;;;;2.40;1.15;;;;;;;17.38;42.15;102483.53;5044625;28;20124;-60
2022/04/03 06:08:20;;;;;;;1.83;1.10;;;;;;;17.40;42.22;102492.31;5053065;28;20072;-61
2022/04/03 06:10:47;;;;;;;1.20;0.95;;;;;;;17.40;42.21;102486.09;5052379;28;20045;-61
2022/04/03 06:13:14;;;;;;;3.22;1.50;;;;;;;17.39;41.53;102489.75;5035196;28;20140;-61
2022/04/03 06:15:43;;;;;;;3.35;1.48;;;;;;;17.37;41.54;102489.00;5050151;28;20050;-61
2022/04/03 06:18:13;;;;;;;3.65;1.50;;;;;;;17.34;41.72;102492.75;5053563;28;20049;-61
2022/04/03 06:20:41;;;;;;;3.20;1.80;;;;;;;17.31;41.54;102494.78;5045413;28;20128;-61
2022/04/03 06:23:18;;;;;;;2.38;1.38;;;;;;;17.26;41.87;102501.34;5042096;28;20053;-60
2022/04/03 06:25:47;;;;;;;2.70;1.35;;;;;;;17.24;41.36;102503.25;5049227;28;20087;-60
2022/04/03 06:28:14;;;;;;;2.70;1.58;;;;;;;17.21;41.16;102503.50;5048975;28;20041;-60
2022/04/03 06:30:41;;;;;;;3.00;1.85;;;;;;;17.18;41.44;102505.53;5018481;28;20051;-61
2022/04/03 06:33:08;;;;;;;3.15;1.70;;;;;;;17.16;41.27;102505.63;5050596;28;20052;-60
2022/04/03 06:35:35;;;;;;;2.90;2.00;;;;;;;17.13;42.15;102505.00;5043565;28;20055;-60
2022/04/03 06:38:07;;;;;;;3.80;2.38;;;;;;;17.11;41.85;102513.13;5047135;28;20111;-60
2022/04/03 06:40:35;;;;;;;2.55;1.90;;;;;;;17.10;41.70;102507.88;5045449;28;20211;-60
2022/04/03 06:43:01;;;;;;;3.92;2.20;;;;;;;17.09;41.86;102508.84;5026974;28;20132;-60
2022/04/03 06:45:28;;;;;;;2.97;1.85;;;;;;;17.05;41.91;102505.53;5046484;28;20136;-60
2022/04/03 06:47:57;;;;;;;5.43;1.90;;;;;;;17.04;41.89;102506.47;5049343;28;20381;-61
2022/04/03 06:50:24;;;;;;;7.65;1.80;;;;;;;17.03;41.61;102505.63;5043539;28;20045;-60
2022/04/03 06:52:51;;;;;;;8.05;1.70;;;;;;;17.02;42.08;102514.63;5048324;28;21931;-61
2022/04/03 06:55:18;;;;;;;5.38;2.17;;;;;;;17.00;41.74;102507.66;5043420;28;20140;-61
2022/04/03 06:57:44;;;;;;;7.07;2.58;;;;;;;17.01;41.76;102509.38;5041247;28;20045;-60
2022/04/03 07:00:13;;;;;;;5.00;2.33;;;;;;;17.01;41.83;102514.75;5028472;28;20056;-60
2022/04/03 07:02:39;;;;;;;6.68;2.67;;;;;;;17.02;41.50;102511.94;5052100;28;20431;-61
2022/04/03 07:05:09;;;;;;;11.20;3.00;;;;;;;17.05;41.60;102516.25;5045327;28;20340;-59
2022/04/03 07:07:36;;;;;;;5.75;2.83;;;;;;;17.06;41.95;102509.06;5050130;28;20041;-60
2022/04/03 07:10:03;;;;;;;10.60;3.50;;;;;;;17.06;42.01;102515.28;5051316;28;20148;-61
2022/04/03 07:12:30;;;;;;;12.18;3.88;;;;;;;17.06;41.55;102514.41;5050299;28;20329;-61
2022/04/03 07:14:56;;;;;;;14.40;4.40;;;;;;;17.03;41.49;102516.34;5055360;28;20076;-61
2022/04/03 07:17:23;;;;;;;10.57;3.90;;;;;;;17.02;41.47;102516.44;5054252;28;20602;-60
2022/04/03 07:19:49;;;;;;;15.18;4.07;;;;;;;17.02;41.64;102519.13;5036005;28;20053;-60
2022/04/03 07:22:16;;;;;;;11.85;4.55;;;;;;;17.01;41.81;102512.91;5053544;28;20495;-60
2022/04/03 07:24:43;;;;;;;14.52;4.30;;;;;;;17.02;42.02;102519.13;5052859;28;20381;-61
2022/04/03 07:27:09;;;;;;;11.35;4.53;;;;;;;17.03;42.05;102520.84;5053736;28;20139;-60
2022/04/03 07:29:36;;;;;;;12.52;4.68;;;;;;;17.03;42.02;102512.81;5043169;28;20454;-59
2022/04/03 07:32:03;;;;;;;10.52;4.22;;;;;;;17.04;41.63;102517.19;5036392;28;20075;-60
2022/04/03 07:34:29;;;;;;;10.05;4.55;;;;;;;17.01;41.76;102514.75;5055275;28;20132;-60
2022/04/03 07:36:56;;;;;;;10.43;4.20;;;;;;;17.00;41.74;102516.56;5053654;28;20045;-59
2022/04/03 07:39:26;;;;;;;11.70;4.95;;;;;;;17.01;41.43;102517.41;5053250;28;20463;-61
2022/04/03 07:41:52;;;;;;;11.20;4.63;;;;;;;16.99;41.56;102514.81;5034863;28;20049;-59
2022/04/03 07:44:19;;;;;;;14.57;4.57;;;;;;;16.98;42.08;102515.81;5037219;28;20077;-60
2022/04/03 07:46:45;;;;;;;10.77;4.32;;;;;;;16.99;41.72;102514.81;5035721;28;20072;-61
2022/04/03 07:49:12;;;;;;;10.52;4.22;;;;;;;16.98;41.90;102513.13;5037649;28;20618;-60
2022/04/03 07:51:38;;;;;;;8.82;4.07;;;;;;;16.98;41.78;102514.94;5034842;28;20373;-61
2022/04/03 07:54:05;;;;;;;11.38;4.30;;;;;;;16.98;42.07;102514.94;5036107;28;20135;-61
2022/04/03 07:56:32;;;;;;;9.23;3.97;;;;;;;16.98;41.83;102518.47;5035435;28;20053;-60
2022/04/03 07:58:58;;;;;;;11.80;3.85;;;;;;;17.00;42.06;102521.03;5055712;28;20091;-61
2022/04/03 08:01:25;;;;;;;8.73;3.38;;;;;;;17.00;41.95;102521.94;5053708;28;20132;-60
2022/04/03 08:03:51;;;;;;;13.93;4.72;;;;;;;17.02;42.53;102519.97;5053415;28;20057;-60
2022/04/03 08:06:18;;;;;;;6.78;3.60;;;;;;;17.05;41.39;102516.25;5052418;28;20072;-60
2022/04/03 08:08:44;;;;;;;9.07;3.67;;;;;;;17.08;42.13;102513.31;5054421;28;20103;-60
2022/04/03 08:11:11;;;;;;;10.60;3.55;;;;;;;17.12;42.54;102516.66;5053754;28;20136;-59
2022/04/03 08:13:38;;;;;;;10.82;3.75;;;;;;;17.14;42.16;102523.63;5035126;28;20079;-61
2022/04/03 08:16:04;;;;;;;9.27;3.38;;;;;;;17.17;42.30;102523.44;5053580;28;20395;-60
2022/04/03 08:18:31;;;;;;;6.85;2.70;;;;;;;17.20;42.03;102528.53;5042309;28;20097;-59
2022/04/03 08:21:01;;;;;;;10.30;3.58;;;;;;;17.22;42.22;102521.28;5055201;28;20044;-60
2022/04/03 08:23:27;;;;;;;5.30;2.55;;;;;;;17.24;42.04;102519.34;5053491;28;20049;-61
2022/04/03 08:25:54;;;;;;;6.57;2.95;;;;;;;17.27;41.31;102527.16;5050581;28;20049;-60
2022/04/03 08:28:22;;;;;;;7.80;3.47;;;;;;;17.29;41.62;102529.75;5036171;28;20041;-61
2022/04/03 08:30:48;;;;;;;4.82;2.20;;;;;;;17.31;41.24;102524.28;5052654;28;20045;-62
2022/04/03 08:33:15;;;;;;;4.68;2.35;;;;;;;17.33;41.37;102533.06;5054676;28;20095;-60
2022/04/03 08:35:42;;;;;;;6.07;2.47;;;;;;;17.35;41.93;102533.81;5035543;28;20044;-61
2022/04/03 08:38:09;;;;;;;5.55;2.58;;;;;;;17.36;41.19;102531.00;5052169;28;20072;-61
2022/04/03 08:40:36;;;;;;;3.75;2.30;;;;;;;17.37;40.95;102531.91;5038164;28;20173;-62
2022/04/03 08:43:04;;;;;;;5.90;2.30;;;;;;;17.38;40.94;102536.28;5051783;28;20132;-59
2022/04/03 08:45:30;;;;;;;5.18;3.05;;;;;;;17.39;41.10;102535.31;5053036;28;20494;-60
2022/04/03 08:47:59;;;;;;;5.55;2.30;;;;;;;17.40;41.09;102532.50;5053066;28;20072;-60
2022/04/03 08:50:38;;;;;;;5.07;2.50;;;;;;;17.40;41.16;102535.19;5051823;28;20076;-60
2022/04/03 08:53:07;;;;;;;3.33;2.00;;;;;;;17.41;41.11;102534.25;5055272;28;20085;-60
2022/04/03 08:55:34;;;;;;;4.65;2.03;;;;;;;17.45;40.67;102537.56;5050266;28;20136;-61
2022/04/03 08:58:02;;;;;;;4.20;2.08;;;;;;;17.47;41.23;102528.44;5035990;28;20369;-61
2022/04/03 09:00:31;;;;;;;4.22;1.98;;;;;;;17.49;40.86;102537.25;5052326;28;20079;-61
2022/04/03 09:02:58;;;;;;;6.75;2.10;;;;;;;17.52;41.30;102531.63;5050447;28;20044;-61
2022/04/03 09:05:38;;;;;;;2.78;1.80;;;;;;;17.54;40.67;102528.88;5052361;28;20135;-60
2022/04/03 09:08:05;;;;;;;4.22;1.77;;;;;;;17.58;41.12;102533.03;5048013;28;20129;-60
2022/04/03 09:10:33;;;;;;;3.90;1.90;;;;;;;17.58;41.27;102525.00;5050052;28;20080;-59
2022/04/03 09:13:00;;;;;;;2.50;1.63;;;;;;;17.60;40.90;102532.94;5034649;28;20068;-61
2022/04/03 09:15:28;;;;;;;2.15;1.40;;;;;;;17.60;41.14;102528.41;5051104;28;20072;-60
2022/04/03 09:18:02;;;;;;;2.92;1.70;;;;;;;17.61;40.60;102540.00;5049867;28;20076;-60
2022/04/03 09:20:34;;;;;;;4.43;1.63;;;;;;;17.60;40.80;102533.78;5041796;28;20123;-61
2022/04/03 09:23:06;;;;;;;3.63;1.60;;;;;;;17.60;40.88;102535.59;5051780;28;20049;-61
2022/04/03 09:25:41;;;;;;;2.50;1.55;;;;;;;17.59;40.97;102536.59;5035408;28;20123;-62
2022/04/03 09:28:11;;;;;;;2.97;1.48;;;;;;;17.57;40.73;102534.03;5032729;28;20045;-62
2022/04/03 09:30:47;;;;;;;1.80;1.50;;;;;;;17.56;40.76;102542.16;5045442;28;20049;-61
2022/04/03 09:33:19;;;;;;;2.80;1.33;;;;;;;17.54;40.62;102547.63;5050547;28;20049;-61
2022/04/03 09:35:53;;;;;;;3.25;1.55;;;;;;;17.54;40.45;102539.59;5051478;28;20083;-61
2022/04/03 09:38:20;;;;;;;2.67;1.48;;;;;;;17.53;40.43;102556.66;5051007;28;20120;-60
2022/04/03 09:40:50;;;;;;;1.90;1.17;;;;;;;17.51;40.72;102554.06;5033785;28;20045;-60
2022/04/03 09:43:38;;;;;;;3.10;1.50;;;;;;;17.49;40.73;102549.78;5034514;28;20491;-60
2022/04/03 09:46:09;;;;;;;1.77;1.00;;;;;;;17.46;40.35;102556.22;5048671;28;20396;-61
2022/04/03 09:48:41;;;;;;;1.45;1.00;;;;;;;17.44;40.82;102557.28;5028073;28;20339;-60
2022/04/03 09:51:11;;;;;;;2.30;1.10;;;;;;;17.38;40.59;102552.38;5051931;28;20040;-60
2022/04/03 09:53:49;;;;;;;2.47;1.20;;;;;;;17.33;40.80;102551.84;5032064;28;20527;-60
2022/04/03 09:56:24;;;;;;;1.98;1.20;;;;;;;17.30;40.49;102547.53;5050970;28;20093;-60
2022/04/03 09:58:51;;;;;;;2.00;1.40;;;;;;;17.34;41.05;102542.81;5047583;28;20198;-60
2022/04/03 10:01:34;;;;;;;2.10;1.08;;;;;;;17.37;41.33;102540.78;5049934;28;20127;-60
2022/04/03 10:04:06;;;;;;;4.00;1.17;;;;;;;17.42;41.09;102532.41;5019736;28;20064;-61
2022/04/03 10:06:34;;;;;;;2.15;1.10;;;;;;;17.45;40.79;102533.06;5013848;28;20136;-61
2022/04/03 10:09:02;;;;;;;1.75;1.10;;;;;;;17.50;40.82;102522.00;5025059;28;20120;-60
2022/04/03 10:11:29;;;;;;;2.33;1.10;;;;;;;17.55;40.94;102522.53;5030673;28;20125;-60
2022/04/03 10:13:56;;;;;;;2.20;1.00;;;;;;;17.59;41.07;102526.72;5022849;28;20424;-61
2022/04/03 10:16:23;;;;;;;1.70;1.00;;;;;;;17.64;40.20;102521.88;5028137;28;20081;-60
2022/04/03 10:18:50;;;;;;;2.30;1.20;;;;;;;17.69;40.78;102519.72;5026892;28;20405;-60
2022/04/03 10:21:28;;;;;;;3.10;1.30;;;;;;;17.71;40.81;102501.69;5001589;28;20128;-60
2022/04/03 10:24:03;;;;;;;3.05;1.10;;;;;;;17.74;40.57;102504.19;5016197;28;20124;-59
2022/04/03 10:26:34;;;;;;;2.03;1.00;;;;;;;17.79;40.40;102500.31;5023425;28;20053;-61
2022/04/03 10:29:05;;;;;;;1.58;1.00;;;;;;;17.82;40.54;102502.78;5019328;28;20076;-61
2022/04/03 10:31:31;;;;;;;3.50;0.93;;;;;;;17.83;40.67;102499.13;5023291;28;20117;-59
2022/04/03 10:33:58;;;;;;;1.40;0.88;;;;;;;17.83;40.22;102499.97;5026393;28;20054;-62
2022/04/03 10:36:30;;;;;;;3.03;1.38;;;;;;;17.84;40.61;102501.69;5023541;28;20048;-60
2022/04/03 10:39:10;;;;;;;1.83;0.98;;;;;;;17.87;40.51;102495.25;5019890;28;20077;-60
2022/04/03 10:41:43;;;;;;;1.70;0.90;;;;;;;17.89;40.33;102488.81;5027134;28;20080;-59
2022/04/03 10:44:18;;;;;;;2.08;0.85;;;;;;;17.93;40.13;102486.75;5021708;28;20056;-60
2022/04/03 10:47:03;;;;;;;1.25;0.80;;;;;;;17.97;40.10;102486.44;5006329;28;20413;-60
2022/04/03 10:49:49;;;;;;;1.58;0.93;;;;;;;18.01;40.23;102476.31;5010493;28;20038;-59
2022/04/03 10:52:35;;;;;;;4.70;1.02;;;;;;;18.02;40.00;102482.53;5024721;28;20081;-59
2022/04/03 10:55:20;;;;;;;1.13;0.90;;;;;;;18.02;39.84;102472.66;5022358;28;20092;-60
2022/04/03 10:57:49;;;;;;;1.83;0.88;;;;;;;18.02;39.95;102469.97;5028500;28;20089;-60
2022/04/03 11:00:16;;;;;;;1.10;0.65;;;;;;;18.01;40.27;102476.31;5013713;28;20355;-59
2022/04/03 11:02:44;;;;;;;1.55;0.73;;;;;;;18.02;40.10;102469.97;5023380;28;20064;-60
2022/04/03 11:05:26;;;;;;;1.00;0.85;;;;;;;18.02;39.93;102471.81;5042601;28;20123;-61
2022/04/03 11:08:13;;;;;;;1.00;0.75;;;;;;;18.03;40.09;102469.00;5028777;28;20094;-60
2022/04/03 11:10:57;;;;;;;2.05;0.90;;;;;;;18.06;40.01;102462.56;5047583;28;20202;-60
2022/04/03 11:13:29;;;;;;;2.65;0.82;;;;;;;18.07;39.67;102462.44;5047223;28;20128;-61
2022/04/03 11:16:04;;;;;;;0.88;0.65;;;;;;;18.10;39.94;102462.22;5049519;28;20065;-60
2022/04/03 11:18:49;;;;;;;1.63;0.80;;;;;;;18.12;39.82;102454.91;5052066;28;20049;-61
2022/04/03 11:21:18;;;;;;;0.95;0.60;;;;;;;18.14;39.80;102454.81;5048234;28;20065;-61
2022/04/03 11:24:10;;;;;;;1.63;0.82;;;;;;;18.16;39.34;102447.47;5049269;28;20428;-60
2022/04/03 11:26:38;;;;;;;2.05;0.60;;;;;;;18.17;39.63;102447.38;5049476;28;20107;-60
2022/04/03 11:29:09;;;;;;;2.05;0.80;;;;;;;18.17;39.91;102444.69;5031243;28;20125;-59